Time;durP1;ratioP1;P1;durP2;ratioP2;P2;SDS_P1;SDS_P2;PMS_P1;PMS_P2;Temp;Humidity;BMP_temperature;BMP_pressure;BME280_temperature;BME280_humidity;BME280_pressure;Samples;Min_cycle;Max_cycle;Signal;HPM_P1;HPM_P2
2022/12/18 00:01:27;;;;;;;;;27.33;16.67;;;;;-5.21;86.21;99897.47;4924144;28;102219;-69
2022/12/18 00:03:55;;;;;;;;;22.00;16.00;;;;;-5.15;86.09;99905.09;4906296;28;108719;-69
2022/12/18 00:06:24;;;;;;;;;15.00;13.33;;;;;-5.14;85.86;99899.75;4925663;28;102690;-69
2022/12/18 00:08:52;;;;;;;;;21.67;17.33;;;;;-5.19;85.48;99903.53;4939948;28;102588;-70
2022/12/18 00:11:23;;;;;;;;;21.00;15.00;;;;;-5.14;85.49;99898.91;4945310;28;102415;-69
2022/12/18 00:13:50;;;;;;;;;21.00;13.00;;;;;-5.15;85.53;99915.66;4927376;28;108568;-69
2022/12/18 00:16:20;;;;;;;;;20.33;15.33;;;;;-5.18;85.54;99915.78;4939039;28;102114;-69
2022/12/18 00:18:49;;;;;;;;;13.00;10.00;;;;;-5.09;85.75;99915.38;4919521;28;102346;-70
2022/12/18 00:21:16;;;;;;;;;12.00;9.00;;;;;-4.98;85.60;99924.47;4940718;28;102391;-69
2022/12/18 00:23:44;;;;;;;;;13.33;8.33;;;;;-5.00;84.64;99920.22;4932468;28;104008;-69
2022/12/18 00:26:27;;;;;;;;;25.67;19.00;;;;;-5.12;85.05;99926.03;4934395;28;102598;-70
2022/12/18 00:28:56;;;;;;;;;21.67;18.33;;;;;-5.11;84.98;99918.06;4935401;28;102992;-69
2022/12/18 00:31:24;;;;;;;;;23.00;21.00;;;;;-5.12;84.43;99931.31;4937551;28;101998;-69
2022/12/18 00:33:56;;;;;;;;;15.00;12.00;;;;;-5.18;85.06;99906.09;4928836;28;108952;-69
2022/12/18 00:36:27;;;;;;;;;18.00;15.00;;;;;-5.08;84.60;99928.47;4938692;28;102831;-70
2022/12/18 00:38:56;;;;;;;;;29.33;14.33;;;;;-5.06;85.12;99936.31;4941642;28;103344;-69
2022/12/18 00:44:12;;;;;;;;;12.00;9.33;;;;;-4.89;85.27;99923.19;4935409;28;108111;-69
2022/12/18 00:46:40;;;;;;;;;3.67;3.67;;;;;-4.81;84.61;99920.19;4923206;28;102593;-69
2022/12/18 00:49:07;;;;;;;;;8.33;3.67;;;;;-4.76;84.50;99926.94;4940401;28;101997;-69
2022/12/18 00:51:34;;;;;;;;;3.00;1.00;;;;;-4.72;84.12;99941.69;4943548;28;102163;-69
2022/12/18 00:54:01;;;;;;;;;4.00;3.00;;;;;-4.68;84.77;99943.25;4940562;28;104024;-69
2022/12/18 00:56:28;;;;;;;;;1.00;0.33;;;;;-4.66;84.20;99944.06;4938666;28;102067;-69
2022/12/18 00:58:55;;;;;;;;;0.00;0.00;;;;;-4.66;84.43;99945.84;4932351;28;102870;-69
2022/12/18 01:01:22;;;;;;;;;1.00;0.00;;;;;-4.62;83.96;99955.31;4935577;28;102334;-70
2022/12/18 01:03:49;;;;;;;;;2.33;0.67;;;;;-4.59;84.32;99948.09;4935325;28;104127;-69
2022/12/18 01:06:16;;;;;;;;;1.00;0.00;;;;;-4.55;84.28;99960.22;4935171;28;102429;-69
2022/12/18 01:08:44;;;;;;;;;1.00;0.00;;;;;-4.54;83.71;99961.94;4930058;28;103853;-69
2022/12/18 01:11:14;;;;;;;;;0.00;0.00;;;;;-4.51;82.82;99964.44;4942018;28;102361;-70
2022/12/18 01:13:42;;;;;;;;;0.00;0.00;;;;;-4.49;83.64;99964.34;4939339;28;104075;-70
2022/12/18 01:16:12;;;;;;;;;0.00;0.00;;;;;-4.48;82.96;99962.56;4932312;28;102640;-69
2022/12/18 01:18:39;;;;;;;;;0.00;0.00;;;;;-4.44;82.97;99966.78;4932373;28;102366;-70
2022/12/18 01:21:08;;;;;;;;;0.00;0.00;;;;;-4.53;83.13;99958.38;4934902;28;102388;-69
2022/12/18 01:23:36;;;;;;;;;0.33;0.00;;;;;-4.44;83.07;99975.56;4925511;28;103496;-70
2022/12/18 01:26:13;;;;;;;;;0.00;0.00;;;;;-4.43;83.48;99979.91;4929559;28;102130;-69
2022/12/18 01:28:41;;;;;;;;;0.00;0.00;;;;;-4.41;82.96;99979.84;4937477;28;104547;-69
2022/12/18 01:31:34;;;;;;;;;0.00;0.00;;;;;-4.41;82.54;99972.75;4942976;28;102009;-69
2022/12/18 01:34:02;;;;;;;;;1.00;0.00;;;;;-4.40;83.26;99978.91;4925915;28;108705;-69
2022/12/18 01:36:34;;;;;;;;;0.00;0.00;;;;;-4.48;82.89;99957.28;4939257;28;102346;-69
2022/12/18 01:39:04;;;;;;;;;0.00;0.00;;;;;-4.47;83.16;99953.75;4935100;28;102173;-69
2022/12/18 01:44:55;;;;;;;;;0.00;0.00;;;;;-4.38;82.51;99977.03;4942623;28;104027;-70
2022/12/18 01:47:36;;;;;;;;;0.00;0.00;;;;;-4.37;82.81;99979.63;4937522;28;102526;-69
2022/12/18 01:50:25;;;;;;;;;1.00;0.00;;;;;-4.40;83.09;99984.16;4952952;28;102226;-70
2022/12/18 01:53:12;;;;;;;;;0.67;0.67;;;;;-4.42;83.41;99976.34;4932277;28;102450;-69
2022/12/18 01:55:59;;;;;;;;;0.33;0.00;;;;;-4.40;83.34;99989.44;4934718;28;108415;-69
2022/12/18 01:58:53;;;;;;;;;0.00;0.00;;;;;-4.37;82.28;99992.81;4924314;28;101990;-69
2022/12/18 02:01:23;;;;;;;;;0.33;0.00;;;;;-4.38;82.29;99990.25;4930282;28;101927;-70
2022/12/18 02:03:51;;;;;;;;;0.00;0.00;;;;;-4.38;82.20;99993.75;4920770;28;102360;-69
2022/12/18 02:06:34;;;;;;;;;0.00;0.00;;;;;-4.37;82.45;100000.75;4927772;28;104011;-70
2022/12/18 02:09:25;;;;;;;;;0.00;0.00;;;;;-4.37;82.75;100006.03;4923459;28;102372;-68
2022/12/18 02:12:27;;;;;;;;;0.00;0.00;;;;;-4.36;82.70;100013.00;4931199;28;101941;-70
2022/12/18 02:15:47;;;;;;;;;0.00;0.00;;;;;-4.34;82.93;100020.84;4937029;28;103063;-69
2022/12/18 02:18:42;;;;;;;;;0.00;0.00;;;;;-4.36;82.66;100023.53;4931734;28;109276;-69
2022/12/18 02:21:51;;;;;;;;;0.00;0.00;;;;;-4.33;82.67;100027.84;4928553;28;102390;-69
2022/12/18 02:24:47;;;;;;;;;0.67;0.00;;;;;-4.39;82.49;100022.84;4928633;28;102124;-69
2022/12/18 02:27:38;;;;;;;;;0.00;0.00;;;;;-4.34;83.41;100028.78;4916575;28;102451;-70
2022/12/18 02:30:16;;;;;;;;;0.00;0.00;;;;;-4.32;82.80;100038.31;4916341;28;108117;-69
2022/12/18 02:32:49;;;;;;;;;0.00;0.00;;;;;-4.32;82.68;100045.41;4930843;28;102430;-69
2022/12/18 02:35:25;;;;;;;;;0.00;0.00;;;;;-4.33;82.45;100039.25;4930960;28;102204;-69
2022/12/18 02:37:56;;;;;;;;;0.00;0.00;;;;;-4.27;82.60;100043.38;4931821;28;102177;-70
2022/12/18 02:40:26;;;;;;;;;0.00;0.00;;;;;-4.27;82.11;100048.66;4931874;28;108703;-69
2022/12/18 02:42:54;;;;;;;;;1.00;1.00;;;;;-4.36;83.64;100043.81;4929526;28;102297;-69
2022/12/18 02:45:21;;;;;;;;;0.67;0.00;;;;;-4.35;83.20;100040.25;4939269;28;102432;-69
2022/12/18 02:47:49;;;;;;;;;0.00;0.00;;;;;-4.34;82.92;100048.09;4933664;28;105200;-69
2022/12/18 02:50:26;;;;;;;;;0.00;0.00;;;;;-4.33;82.91;100060.38;4938363;28;104181;-69
2022/12/18 02:53:13;;;;;;;;;0.00;0.00;;;;;-4.34;81.90;100063.94;4933991;28;102558;-69
2022/12/18 02:55:46;;;;;;;;;0.00;0.00;;;;;-4.33;82.42;100068.31;4935495;28;101857;-69
2022/12/18 02:58:41;;;;;;;;;0.00;0.00;;;;;-4.35;82.59;100071.94;4940969;28;102476;-69
2022/12/18 03:02:03;;;;;;;;;0.00;0.00;;;;;-4.36;82.80;100070.22;4932051;28;109585;-69
2022/12/18 03:04:47;;;;;;;;;0.00;0.00;;;;;-4.35;82.69;100072.78;4888343;28;103522;-69
2022/12/18 03:07:21;;;;;;;;;0.33;0.00;;;;;-4.33;82.46;100078.00;4934216;28;102179;-70
2022/12/18 03:09:51;;;;;;;;;3.00;0.00;;;;;-4.32;82.92;100082.38;4935129;28;102513;-69
2022/12/18 03:12:24;;;;;;;;;0.00;0.00;;;;;-4.31;83.47;100090.19;4938937;28;104013;-69
2022/12/18 03:15:03;;;;;;;;;0.00;0.00;;;;;-4.29;83.14;100103.34;4930528;28;102580;-69
2022/12/18 03:17:33;;;;;;;;;0.00;0.00;;;;;-4.44;82.80;100073.22;4887627;28;102079;-69
2022/12/18 03:20:16;;;;;;;;;0.00;0.00;;;;;-4.31;82.96;100099.91;4934300;28;103240;-69
2022/12/18 03:22:46;;;;;;;;;0.00;0.00;;;;;-4.32;83.59;100090.28;4930855;28;105005;-69
2022/12/18 03:25:15;;;;;;;;;2.33;0.00;;;;;-4.31;83.39;100084.91;4931878;28;102957;-70
2022/12/18 03:27:47;;;;;;;;;0.33;0.00;;;;;-4.33;82.67;100078.88;4941786;28;101938;-69
2022/12/18 03:30:16;;;;;;;;;0.00;0.00;;;;;-4.34;83.58;100087.72;4937145;28;102079;-69
2022/12/18 03:32:54;;;;;;;;;0.00;0.00;;;;;-4.39;83.10;100076.50;4937179;28;104156;-69
2022/12/18 03:35:31;;;;;;;;;0.00;0.00;;;;;-4.37;82.62;100082.56;4933499;28;102646;-68
2022/12/18 03:37:58;;;;;;;;;0.00;0.00;;;;;-4.38;82.32;100094.06;4939246;28;102275;-69
2022/12/18 03:40:56;;;;;;;;;0.00;0.00;;;;;-4.40;82.98;100087.97;4952337;28;102302;-69
2022/12/18 03:43:38;;;;;;;;;0.00;0.00;;;;;-4.41;83.26;100099.47;4946205;28;110691;-69
2022/12/18 03:46:17;;;;;;;;;1.00;0.00;;;;;-4.41;83.33;100103.91;4937292;28;102422;-68
2022/12/18 03:48:52;;;;;;;;;2.33;2.33;;;;;-4.47;83.78;100112.09;4927478;28;102344;-68
2022/12/18 03:51:49;;;;;;;;;0.67;0.00;;;;;-4.46;84.40;100104.13;4942286;28;102329;-68
2022/12/18 03:54:17;;;;;;;;;0.00;0.00;;;;;-4.42;83.42;100107.47;4939272;28;108804;-69
2022/12/18 03:56:51;;;;;;;;;1.00;1.00;;;;;-4.43;83.63;100109.25;4944682;28;102124;-69
2022/12/18 03:59:19;;;;;;;;;0.00;0.00;;;;;-4.42;82.94;100123.31;4944722;28;102373;-69
2022/12/18 04:01:51;;;;;;;;;0.00;0.00;;;;;-4.42;83.20;100120.66;4944625;28;102666;-69
2022/12/18 04:04:20;;;;;;;;;0.67;0.00;;;;;-4.43;83.85;100130.38;4947881;28;104034;-69
2022/12/18 04:06:49;;;;;;;;;0.00;0.00;;;;;-4.42;84.14;100132.09;4935503;28;102048;-69
2022/12/18 04:09:16;;;;;;;;;0.00;0.00;;;;;-4.42;83.63;100133.88;4933536;28;102288;-69
2022/12/18 04:11:46;;;;;;;;;1.00;1.00;;;;;-4.47;83.69;100127.94;4937888;28;102355;-69
2022/12/18 04:14:14;;;;;;;;;3.00;0.00;;;;;-4.48;83.52;100128.84;4936615;28;104027;-70
2022/12/18 04:16:44;;;;;;;;;1.00;1.00;;;;;-4.51;83.85;100130.72;4936326;28;103203;-69
2022/12/18 04:19:11;;;;;;;;;0.00;0.00;;;;;-4.51;83.77;100136.00;4934895;28;102216;-70
2022/12/18 04:21:37;;;;;;;;;0.00;0.00;;;;;-4.50;84.47;100137.69;4937486;28;101983;-69
2022/12/18 04:24:05;;;;;;;;;0.00;0.00;;;;;-4.47;84.16;100135.84;4929430;28;104164;-69
2022/12/18 04:26:34;;;;;;;;;0.00;0.00;;;;;-4.48;84.04;100139.41;4933950;28;103251;-69
2022/12/18 04:29:02;;;;;;;;;0.67;0.00;;;;;-4.48;84.34;100149.97;4935912;28;101908;-69
2022/12/18 04:31:29;;;;;;;;;1.00;0.00;;;;;-4.47;84.20;100151.69;4938176;28;105210;-69
2022/12/18 04:33:56;;;;;;;;;0.00;0.00;;;;;-4.48;84.49;100152.59;4919501;28;108819;-70
2022/12/18 04:36:25;;;;;;;;;0.33;0.00;;;;;-4.47;84.02;100159.59;4933394;28;103772;-70
2022/12/18 04:38:52;;;;;;;;;0.00;0.00;;;;;-4.48;83.88;100160.53;4936393;28;101845;-69
2022/12/18 04:41:19;;;;;;;;;0.00;0.00;;;;;-4.48;83.97;100177.22;4933488;28;102471;-70
2022/12/18 04:43:46;;;;;;;;;0.00;0.00;;;;;-4.46;84.16;100179.81;4935995;28;104038;-69
2022/12/18 04:46:13;;;;;;;;;1.00;0.00;;;;;-4.46;84.68;100179.81;4931024;28;102481;-69
2022/12/18 04:48:40;;;;;;;;;0.00;0.00;;;;;-4.45;83.91;100173.56;4937506;28;103573;-70
2022/12/18 04:51:07;;;;;;;;;0.00;0.00;;;;;-4.46;84.62;100179.81;4936541;28;102911;-70
2022/12/18 04:53:34;;;;;;;;;0.00;0.00;;;;;-4.45;83.77;100184.13;4938458;28;104195;-70
2022/12/18 04:56:10;;;;;;;;;0.00;0.00;;;;;-4.44;84.03;100185.84;4933804;28;102128;-70
2022/12/18 04:58:39;;;;;;;;;1.00;0.00;;;;;-4.44;84.09;100186.72;4910727;28;102121;-68
2022/12/18 05:01:07;;;;;;;;;0.00;0.00;;;;;-4.43;83.70;100196.34;4932452;28;102045;-69
2022/12/18 05:03:35;;;;;;;;;0.00;0.00;;;;;-4.48;84.13;100192.19;4929084;28;110382;-69
2022/12/18 05:06:04;;;;;;;;;0.00;0.00;;;;;-4.52;84.00;100181.78;4937866;28;102733;-70
2022/12/18 05:08:32;;;;;;;;;0.00;0.00;;;;;-4.41;83.93;100201.56;4931088;28;102249;-68
2022/12/18 05:11:01;;;;;;;;;0.00;0.00;;;;;-4.50;84.47;100186.97;4932368;28;103965;-68
2022/12/18 05:13:29;;;;;;;;;1.00;1.00;;;;;-4.39;84.23;100212.91;4935634;28;103974;-68
2022/12/18 05:15:56;;;;;;;;;0.00;0.00;;;;;-4.38;84.76;100206.72;4915805;28;102235;-68
2022/12/18 05:18:24;;;;;;;;;0.00;0.00;;;;;-4.38;83.95;100210.22;4930242;28;102356;-69
2022/12/18 05:20:51;;;;;;;;;0.00;0.00;;;;;-4.37;83.75;100216.34;4932353;28;102491;-69
2022/12/18 05:23:19;;;;;;;;;0.00;0.00;;;;;-4.38;83.67;100217.28;4931458;28;104000;-69
2022/12/18 05:25:54;;;;;;;;;0.00;0.00;;;;;-4.39;84.88;100219.06;4930324;28;101976;-69
2022/12/18 05:28:23;;;;;;;;;0.00;0.00;;;;;-4.39;84.86;100224.34;4935799;28;102174;-69
2022/12/18 05:30:53;;;;;;;;;0.33;0.00;;;;;-4.39;84.77;100223.47;4932648;28;102493;-69
2022/12/18 05:33:22;;;;;;;;;0.00;0.00;;;;;-4.41;84.89;100228.81;4933003;28;104042;-70
2022/12/18 05:35:57;;;;;;;;;1.00;1.00;;;;;-4.41;84.60;100222.69;4930772;28;102208;-69
2022/12/18 05:38:25;;;;;;;;;3.00;0.33;;;;;-4.42;84.56;100227.13;4934154;28;102325;-70
2022/12/18 05:40:53;;;;;;;;;0.00;0.00;;;;;-4.40;84.42;100227.03;4929792;28;102362;-68
2022/12/18 05:43:22;;;;;;;;;0.00;0.00;;;;;-4.41;84.39;100223.53;4931461;28;103681;-69
2022/12/18 05:45:50;;;;;;;;;0.00;0.00;;;;;-4.42;84.51;100224.47;4932225;28;102390;-69
2022/12/18 05:48:17;;;;;;;;;0.00;0.00;;;;;-4.43;84.61;100230.66;4934686;28;102006;-69
2022/12/18 05:50:46;;;;;;;;;0.00;0.00;;;;;-4.42;84.56;100234.16;4933438;28;104344;-68
2022/12/18 05:53:16;;;;;;;;;0.67;0.00;;;;;-4.42;83.86;100239.44;4924941;28;104127;-69
2022/12/18 05:55:44;;;;;;;;;0.00;0.00;;;;;-4.45;84.55;100243.06;4935031;28;102619;-69
2022/12/18 05:58:12;;;;;;;;;1.00;1.00;;;;;-4.48;84.40;100230.00;4931699;28;102210;-69
2022/12/18 06:00:41;;;;;;;;;1.00;0.33;;;;;-4.50;84.68;100239.75;4935894;28;102030;-68
2022/12/18 06:03:09;;;;;;;;;0.33;0.33;;;;;-4.58;83.96;100245.38;4927749;28;104043;-68
2022/12/18 06:05:43;;;;;;;;;0.00;0.00;;;;;-4.58;84.19;100248.03;4930443;28;102267;-68
2022/12/18 06:08:11;;;;;;;;;0.33;0.33;;;;;-4.59;84.59;100248.94;4929899;28;102275;-68
2022/12/18 06:10:39;;;;;;;;;1.00;0.00;;;;;-4.68;84.92;100236.13;4933555;28;102173;-68
2022/12/18 06:13:06;;;;;;;;;0.00;0.00;;;;;-4.60;84.49;100249.88;4931883;28;104179;-68
2022/12/18 06:15:37;;;;;;;;;0.33;0.33;;;;;-4.59;84.14;100256.00;4933889;28;102343;-68
2022/12/18 06:18:04;;;;;;;;;0.00;0.00;;;;;-4.61;84.94;100255.22;4930781;28;101972;-68
2022/12/18 06:20:31;;;;;;;;;0.00;0.00;;;;;-4.61;85.02;100257.88;4936140;28;103959;-67
2022/12/18 06:23:00;;;;;;;;;1.00;0.00;;;;;-4.62;84.53;100259.63;4927205;28;108834;-68
2022/12/18 06:25:27;;;;;;;;;0.00;0.00;;;;;-4.63;84.57;100263.19;4933150;28;102112;-69
2022/12/18 06:27:54;;;;;;;;;0.00;0.00;;;;;-4.67;84.77;100255.47;4932458;28;102360;-68
2022/12/18 06:30:21;;;;;;;;;0.00;0.00;;;;;-4.66;84.51;100273.03;4932339;28;102472;-68
2022/12/18 06:32:49;;;;;;;;;0.00;0.00;;;;;-4.66;84.87;100273.03;4930828;28;104185;-69
2022/12/18 06:35:22;;;;;;;;;0.00;0.00;;;;;-4.68;84.13;100281.00;4931853;28;105075;-68
2022/12/18 06:37:49;;;;;;;;;0.00;0.00;;;;;-4.68;84.72;100275.72;4927223;28;102607;-69
2022/12/18 06:40:16;;;;;;;;;0.00;0.00;;;;;-4.70;84.19;100274.94;4933901;28;102109;-68
2022/12/18 06:42:43;;;;;;;;;0.00;0.00;;;;;-4.70;84.40;100284.63;4931568;28;103985;-69
2022/12/18 06:45:11;;;;;;;;;1.00;0.00;;;;;-4.72;84.12;100292.59;4934392;28;102472;-68
2022/12/18 06:47:38;;;;;;;;;0.00;0.00;;;;;-4.72;83.94;100295.25;4931893;28;102402;-68
2022/12/18 06:50:05;;;;;;;;;1.00;0.00;;;;;-4.83;84.22;100276.38;4930549;28;102412;-68
2022/12/18 06:52:33;;;;;;;;;0.00;0.00;;;;;-4.85;83.80;100277.34;4929904;28;103905;-69
2022/12/18 06:55:00;;;;;;;;;0.33;0.33;;;;;-4.77;83.54;100305.13;4927768;28;102144;-69
2022/12/18 06:57:27;;;;;;;;;1.00;0.00;;;;;-4.79;84.11;100304.34;4932476;28;102379;-69
2022/12/18 06:59:54;;;;;;;;;0.00;0.00;;;;;-4.79;84.01;100304.34;4930380;28;102226;-68
2022/12/18 07:02:21;;;;;;;;;0.00;0.00;;;;;-4.81;83.74;100308.81;4930681;28;103094;-70
2022/12/18 07:04:48;;;;;;;;;2.33;1.00;;;;;-4.79;84.57;100308.75;4933162;28;102389;-68
2022/12/18 07:07:15;;;;;;;;;0.67;0.67;;;;;-4.78;84.44;100315.75;4932327;28;102581;-68
2022/12/18 07:09:42;;;;;;;;;1.00;0.00;;;;;-4.78;84.16;100313.13;4930933;28;102343;-68
2022/12/18 07:12:09;;;;;;;;;3.00;0.67;;;;;-4.76;84.14;100320.03;4929046;28;103755;-68
2022/12/18 07:14:36;;;;;;;;;0.67;0.00;;;;;-4.79;83.54;100325.47;4928056;28;102661;-68
2022/12/18 07:17:03;;;;;;;;;0.00;0.00;;;;;-4.79;83.86;100328.09;4931028;28;102046;-68
2022/12/18 07:19:32;;;;;;;;;1.00;1.00;;;;;-4.76;83.94;100335.88;4938184;28;102181;-68
2022/12/18 07:21:59;;;;;;;;;2.33;1.00;;;;;-4.72;83.94;100332.19;4933836;28;108472;-69
2022/12/18 07:24:26;;;;;;;;;1.67;1.00;;;;;-4.71;83.83;100338.31;4931429;28;102699;-69
2022/12/18 07:26:53;;;;;;;;;3.00;3.00;;;;;-4.80;83.80;100329.00;4930569;28;102389;-69
2022/12/18 07:29:20;;;;;;;;;3.00;3.00;;;;;-4.67;83.53;100348.69;4932845;28;102135;-68
2022/12/18 07:31:47;;;;;;;;;4.00;1.67;;;;;-4.64;83.83;100356.47;4930828;28;104024;-69
2022/12/18 07:34:15;;;;;;;;;0.67;0.00;;;;;-4.60;83.71;100366.00;4926414;28;102579;-69
2022/12/18 07:36:42;;;;;;;;;3.00;3.00;;;;;-4.55;82.60;100368.47;4933806;28;102141;-68
2022/12/18 07:39:11;;;;;;;;;2.33;2.33;;;;;-4.52;83.37;100366.53;4922175;28;102378;-69
2022/12/18 07:41:38;;;;;;;;;2.33;1.00;;;;;-4.44;83.32;100362.72;4932758;28;103950;-68
2022/12/18 07:44:12;;;;;;;;;0.00;0.00;;;;;-4.36;82.82;100365.88;4934178;28;102231;-69
2022/12/18 07:46:39;;;;;;;;;1.00;1.00;;;;;-4.27;83.23;100360.22;4940322;28;102202;-69
2022/12/18 07:49:06;;;;;;;;;3.00;3.00;;;;;-4.15;82.07;100368.50;4934761;28;102218;-69
2022/12/18 07:51:33;;;;;;;;;0.33;0.00;;;;;-4.03;82.19;100372.38;4934665;28;104045;-69
2022/12/18 07:54:00;;;;;;;;;0.00;0.00;;;;;-3.91;81.66;100363.91;4934456;28;102377;-68
2022/12/18 07:56:27;;;;;;;;;4.00;3.00;;;;;-4.06;81.22;100327.63;4916939;28;102260;-71
2022/12/18 07:58:58;;;;;;;;;1.67;1.67;;;;;-3.69;80.64;100374.38;4915831;28;102330;-69
2022/12/18 08:01:26;;;;;;;;;4.00;2.33;;;;;-3.57;81.22;100368.56;4933008;28;103952;-69
2022/12/18 08:03:53;;;;;;;;;1.67;1.00;;;;;-3.44;80.82;100375.00;4935546;28;102518;-69
2022/12/18 08:06:20;;;;;;;;;1.33;0.67;;;;;-3.39;79.32;100370.38;4932262;28;102357;-68
2022/12/18 08:08:55;;;;;;;;;4.00;0.00;;;;;-3.30;78.96;100366.44;4936241;28;102340;-69
2022/12/18 08:11:24;;;;;;;;;2.00;0.33;;;;;-3.21;78.83;100379.25;4930073;28;104035;-69
2022/12/18 08:13:52;;;;;;;;;2.33;1.67;;;;;-3.09;78.49;100376.03;4932438;28;102635;-69
2022/12/18 08:16:19;;;;;;;;;1.67;1.00;;;;;-3.03;78.13;100353.72;4936354;28;102131;-69
2022/12/18 08:18:47;;;;;;;;;3.00;1.67;;;;;-2.90;78.06;100368.06;4927424;28;102599;-69
2022/12/18 08:21:18;;;;;;;;;0.00;0.00;;;;;-2.86;76.87;100367.84;4932095;28;104156;-69
2022/12/18 08:23:47;;;;;;;;;2.00;1.33;;;;;-2.86;77.09;100373.16;4930230;28;102459;-69
2022/12/18 08:26:14;;;;;;;;;3.00;0.67;;;;;-2.85;75.75;100368.72;4928514;28;102963;-70
2022/12/18 08:28:42;;;;;;;;;2.00;1.00;;;;;-2.79;76.15;100363.97;4936941;28;102547;-69
2022/12/18 08:31:09;;;;;;;;;4.00;2.00;;;;;-2.69;74.62;100372.31;4910320;28;104778;-70
2022/12/18 08:33:38;;;;;;;;;0.00;0.00;;;;;-2.64;74.31;100377.41;4933441;28;102368;-70
2022/12/18 08:36:08;;;;;;;;;2.00;1.33;;;;;-2.59;74.16;100372.72;4929455;28;101953;-71
2022/12/18 08:38:35;;;;;;;;;3.33;1.00;;;;;-2.58;74.24;100382.41;4933988;28;104155;-69
2022/12/18 08:41:04;;;;;;;;;2.67;1.00;;;;;-2.56;74.17;100388.47;4932504;28;104003;-69
2022/12/18 08:46:19;;;;;;;;;2.00;1.00;;;;;-2.47;74.61;100395.97;4930469;28;102151;-70
2022/12/18 08:48:46;;;;;;;;;1.33;1.33;;;;;-2.37;75.07;100399.88;4937868;28;102064;-70
2022/12/18 08:51:17;;;;;;;;;2.00;1.00;;;;;-2.21;72.79;100398.19;4930694;28;103038;-70
2022/12/18 08:53:44;;;;;;;;;1.67;1.33;;;;;-2.11;71.93;100399.44;4934504;28;103497;-70
2022/12/18 08:56:12;;;;;;;;;1.33;1.00;;;;;-2.02;71.57;100404.25;4932156;28;101994;-70
2022/12/18 08:58:39;;;;;;;;;2.00;1.00;;;;;-1.98;71.42;100411.13;4925130;28;102523;-70
2022/12/18 09:01:09;;;;;;;;;3.00;1.00;;;;;-1.94;72.53;100412.69;4943248;28;104069;-69
2022/12/18 09:03:37;;;;;;;;;2.00;1.00;;;;;-1.99;72.66;100414.72;4928088;28;102516;-70
2022/12/18 09:06:05;;;;;;;;;4.00;1.00;;;;;-2.03;72.84;100418.47;4930174;28;102075;-68
2022/12/18 09:08:36;;;;;;;;;4.00;2.00;;;;;-1.93;70.88;100417.03;4944219;28;102192;-71
2022/12/18 09:11:04;;;;;;;;;1.00;1.00;;;;;-1.89;71.05;100421.25;4937207;28;108732;-71
2022/12/18 09:13:31;;;;;;;;;2.00;1.00;;;;;-1.85;71.44;100414.84;4945617;28;102144;-71
2022/12/18 09:15:58;;;;;;;;;4.00;2.00;;;;;-1.84;72.04;100419.22;4946918;28;102208;-71
2022/12/18 09:18:25;;;;;;;;;1.00;1.00;;;;;-1.80;70.43;100419.91;4949339;28;102385;-72
2022/12/18 09:20:52;;;;;;;;;1.67;1.00;;;;;-1.81;70.01;100428.84;4944338;28;104168;-72
2022/12/18 09:23:20;;;;;;;;;2.00;1.00;;;;;-1.84;70.63;100435.13;4930653;28;102205;-72
2022/12/18 09:25:48;;;;;;;;;2.67;2.00;;;;;-1.90;71.14;100414.25;4933407;28;102342;-72
2022/12/18 09:28:17;;;;;;;;;2.00;2.00;;;;;-1.82;71.24;100433.28;4951760;28;101992;-72
2022/12/18 09:30:49;;;;;;;;;1.33;1.00;;;;;-1.78;70.92;100422.50;4933056;28;103660;-71
2022/12/18 09:33:17;;;;;;;;;1.00;1.00;;;;;-1.85;69.38;100422.81;4941643;28;102102;-71
2022/12/18 09:35:45;;;;;;;;;5.67;5.67;;;;;-2.34;70.88;100415.59;4940944;28;102161;-71
2022/12/18 09:38:16;;;;;;;;;11.67;11.00;;;;;-2.71;71.66;100432.44;4944832;28;102881;-71
2022/12/18 09:40:53;;;;;;;;;14.33;11.00;;;;;-2.95;72.65;100436.22;4941329;28;104035;-72
2022/12/18 09:43:44;;;;;;;;;17.67;11.33;;;;;-3.02;73.04;100430.38;4946905;28;102591;-72
2022/12/18 09:46:19;;;;;;;;;20.33;15.67;;;;;-3.25;75.71;100443.81;4946387;28;102196;-70
2022/12/18 09:48:50;;;;;;;;;14.67;14.00;;;;;-3.13;74.42;100453.81;4946915;28;102518;-71
2022/12/18 09:51:29;;;;;;;;;10.33;4.00;;;;;-2.92;75.22;100442.22;4942281;28;104134;-71
2022/12/18 09:54:14;;;;;;;;;20.00;13.33;;;;;-3.01;76.02;100447.94;4942659;28;102400;-71
2022/12/18 09:56:43;;;;;;;;;36.00;23.67;;;;;-3.40;74.83;100449.75;4934936;28;101979;-70
2022/12/18 09:59:39;;;;;;;;;19.67;14.67;;;;;-3.36;75.02;100436.34;4934189;28;101976;-70
2022/12/18 10:02:21;;;;;;;;;20.67;14.67;;;;;-3.17;73.79;100446.94;4943490;28;108802;-71
2022/12/18 10:05:10;;;;;;;;;13.33;11.00;;;;;-3.09;73.96;100452.75;4949199;28;102270;-71
2022/12/18 10:07:51;;;;;;;;;16.00;13.00;;;;;-2.88;73.06;100449.09;4927925;28;102242;-71
2022/12/18 10:10:18;;;;;;;;;6.67;5.67;;;;;-2.54;75.07;100436.91;4944650;28;102071;-72
2022/12/18 10:13:13;;;;;;;;;9.67;5.00;;;;;-2.30;72.98;100435.75;4934565;28;103967;-72
2022/12/18 10:15:58;;;;;;;;;2.67;2.00;;;;;-2.09;72.84;100426.72;4932482;28;102453;-72
2022/12/18 10:19:07;;;;;;;;;4.00;4.00;;;;;-1.88;72.46;100425.63;4943927;28;102175;-72
2022/12/18 10:21:45;;;;;;;;;4.00;2.00;;;;;-1.72;70.53;100423.06;4898141;28;102454;-72
2022/12/18 10:24:35;;;;;;;;;2.00;2.00;;;;;-1.60;70.64;100426.84;4926465;28;108216;-71
2022/12/18 10:27:17;;;;;;;;;3.33;2.00;;;;;-1.65;69.11;100410.31;4929300;28;102139;-71
2022/12/18 10:29:45;;;;;;;;;1.33;1.00;;;;;-1.72;69.65;100432.81;4930764;28;102683;-72
2022/12/18 10:32:24;;;;;;;;;7.00;5.00;;;;;-2.08;68.74;100420.50;4939446;28;102358;-72
2022/12/18 10:34:54;;;;;;;;;7.00;5.00;;;;;-2.16;69.78;100413.88;4933183;28;104061;-72
2022/12/18 10:37:29;;;;;;;;;6.33;4.33;;;;;-1.96;71.16;100393.34;4934863;28;102333;-72
2022/12/18 10:40:14;;;;;;;;;5.00;4.00;;;;;-1.80;70.39;100415.47;4926780;28;101931;-73
2022/12/18 10:43:13;;;;;;;;;5.00;5.00;;;;;-1.61;71.55;100414.53;4943090;28;102118;-73
2022/12/18 10:45:40;;;;;;;;;4.33;4.33;;;;;-1.82;69.61;100401.47;4930215;28;108926;-72
2022/12/18 10:48:20;;;;;;;;;10.67;8.00;;;;;-2.11;69.45;100404.72;4946220;28;102304;-72
2022/12/18 10:50:51;;;;;;;;;11.33;7.67;;;;;-2.15;70.17;100410.25;4940597;28;102687;-73
2022/12/18 10:53:41;;;;;;;;;11.67;9.33;;;;;-2.13;70.81;100401.31;4930201;28;102156;-72
2022/12/18 10:56:08;;;;;;;;;7.67;5.00;;;;;-1.94;71.89;100406.53;4936206;28;104190;-73
2022/12/18 10:58:38;;;;;;;;;9.67;7.33;;;;;-1.99;70.67;100393.53;4944546;28;110744;-72
2022/12/18 11:01:06;;;;;;;;;8.00;8.00;;;;;-2.05;70.42;100399.13;4939826;28;102208;-72
2022/12/18 11:03:37;;;;;;;;;7.67;6.33;;;;;-1.98;70.58;100389.91;4941428;28;102160;-73
2022/12/18 11:06:20;;;;;;;;;11.00;8.00;;;;;-1.87;70.49;100398.19;4946911;28;107489;-73
2022/12/18 11:08:59;;;;;;;;;7.00;5.67;;;;;-1.80;70.42;100388.09;4949275;28;102398;-72
2022/12/18 11:11:27;;;;;;;;;6.33;5.00;;;;;-1.74;71.09;100386.94;4946118;28;102161;-73
2022/12/18 11:14:06;;;;;;;;;10.33;4.00;;;;;-1.82;69.14;100388.22;4943228;28;102299;-73
2022/12/18 11:16:42;;;;;;;;;8.67;8.00;;;;;-1.72;69.67;100385.94;4941948;28;109276;-72
2022/12/18 11:19:39;;;;;;;;;11.00;10.00;;;;;-2.01;70.73;100376.81;4902511;28;102216;-73
2022/12/18 11:22:27;;;;;;;;;7.67;7.67;;;;;-1.81;71.88;100381.13;4932868;28;101902;-72
2022/12/18 11:25:00;;;;;;;;;4.33;4.33;;;;;-1.48;69.36;100379.31;4925961;28;102664;-72
2022/12/18 11:28:24;;;;;;;;;2.00;1.00;;;;;-1.39;67.22;100377.97;4942276;28;109428;-73
2022/12/18 11:31:10;;;;;;;;;4.00;2.00;;;;;-1.21;67.77;100376.97;4950774;28;102000;-73
2022/12/18 11:33:44;;;;;;;;;2.67;2.00;;;;;-1.26;65.79;100383.50;4941721;28;102039;-73
2022/12/18 11:36:46;;;;;;;;;1.33;1.00;;;;;-1.28;66.24;100385.34;4945957;28;102928;-73
2022/12/18 11:39:29;;;;;;;;;2.00;1.67;;;;;-1.32;65.40;100389.97;4938760;28;108845;-73
2022/12/18 11:42:09;;;;;;;;;0.00;0.00;;;;;-1.55;65.90;100350.56;4942215;28;101949;-73
2022/12/18 11:44:51;;;;;;;;;1.75;1.75;;;;;-1.40;67.28;100386.88;4929647;28;102410;-73
2022/12/18 11:47:39;;;;;;;;;1.00;1.00;;;;;-1.51;65.81;100399.84;4941510;28;102210;-73
2022/12/18 11:50:48;;;;;;;;;2.00;1.00;;;;;-1.89;66.17;100399.22;4946357;28;108723;-72
2022/12/18 11:53:15;;;;;;;;;1.00;1.00;;;;;-2.29;67.26;100403.00;4944162;28;102178;-72